首页
METAR-TAF:

METAR-TAF

机场 :

莱镇, 印度

纬度: 34-08-09N, 经度: 077-32-47E, 海拔: 3256米

METAR: 丢失

时间: 11:03 (05:33 UTC)

预报

该预报发布于20小时和3分钟前的09:30 UTC
预报有效从14日的 18点(UTC)到 15日的 18点(UTC)
风速2节,风向多变
能見度: 6000
少量云层高于6000英尺
散云层高于15000英尺
成为
从 15日的 06点(UTC)到 15日的 09点(UTC)
风速5节,风向西转西北
能見度: 6000
散云层高于15000英尺

TAF: VILH 140930Z 1418/1518 VRB02KT 6000 FEW060 SCT150 BECMG 1506/1509 29005KT 6000 SCT150

超过4000个机场的气象观测和天气预报(METAR&TAF报告)。

可查询的气象台以黄色和红色小点在地图上表示。

将鼠标移到小点上方,可查看气象台名称。

然后点击查看天气观测和预报。

如需切换地图:点击带黑十字的绿色按钮放大地图;点击带横线的绿色按钮缩小地图;或者点击绿色箭头查看邻近地区的地图。


METAR-TAF: